Aérodrome :







RETROUVEZ-NOUS SUR...

 
LOGIN :

S'inscrire | Disclaimer

   EN    FR    IT 

 









Légende :    VFR   VFR Marginal   IFR   IFR Intensif   IFR Très Intensif
Visi : 
Plafond : 
>= 8 km
>= 3000ft
5 à 8 km
1000 à 3000 ft
1500m à 5 km
500 à 1000 ft
800 à 1500m
200 à 500 ft
< 800m
< 200 ft
Symboles :   Orages  Brouillard  Fortes neiges  Fortes précipitations  Vent > 20 kt






- Altitude de l'aérodrome : 199 ft
- Code IATA : YRQ


CYRQ - Trois-Rivières

DERNIER METAR :
  • 140900Z AUTO 10004KT 9SM BKN100 OVC140 M12/M15 A3038 RMK SLP294

METARs EXPIRÉS :
  • 140800Z AUTO VRB02KT 9SM SCT010 OVC100 M13/M15 A3040 RMK SLP299
  • 140742Z AUTO VRB02KT 9SM BKN010 BKN120 M13/M16 A3040 RMK SLP299
  • 140730Z AUTO VRB02KT 9SM BKN120 M14/M16 A3040 RMK SLP299
  • 140715Z AUTO 00000KT 9SM -SN FEW011 BKN120 M13/M16 A3040 RMK SLP300
  • 140702Z AUTO 00000KT 9SM SCT011 OVC120 M14/M16 A3040 RMK SLP300
  • 140640Z AUTO 00000KT 9SM BKN009 BKN130 M13/M16 A3040 RMK SLP301

TAF TAF CYRQ
Valide du 14 à 08h jusqu'au 14 à 20h UTC


140738Z 1408/1420 VRB03KT 6SM BR SCT010 BKN120
TEMPO 1408/1412 4SM BR BKN010
FM141200 VRB03KT P6SM -SN BKN080
FM141500 18007KT 6SM -SN OVC040
FM141700 18010KT 3SM -SN OVC020 RMK FCST BASED ON AUTO OBS. NXT FCST BY 141400Z



MET'MAP, la Météo Aéronautique d'un coup d'oeil ! - Copyright ORBIFLY Décembre 2007 - Disclaimer

ORBIFLY MET'MAP TEAM :

Programmation & Développement : Alexandra Zaïnal
Conception & Développement : Baudouin d'Aumeries
Co-Programmation & Développement : Marc-Olivier Méhu
Soutien technique & logistique : Manuel Goepfert

Contact : metmap@orbifly.com




SOURCES & CREDITS :

   NOAA